Time;durP1;ratioP1;P1;durP2;ratioP2;P2;SDS_P1;SDS_P2;PMS_P1;PMS_P2;Temp;Humidity;BMP_temperature;BMP_pressure;BME280_temperature;BME280_humidity;BME280_pressure;Samples;Min_cycle;Max_cycle;Signal;HPM_P1;HPM_P2
2021/04/14 00:00:40;;;;;;;10.13;6.10;;;;;;;;;;4937678;29;20044;-55
2021/04/14 00:03:11;;;;;;;9.43;5.83;;;;;;;;;;4937276;29;20035;-55
2021/04/14 00:05:38;;;;;;;9.95;5.53;;;;;;;;;;4919845;29;20062;-54
2021/04/14 00:08:03;;;;;;;11.00;5.95;;;;;;;;;;4937054;29;20030;-56
2021/04/14 00:10:30;;;;;;;9.00;5.75;;;;;;;;;;4935657;29;20044;-55
2021/04/14 00:12:55;;;;;;;11.60;5.63;;;;;;;;;;4920782;29;20046;-55
2021/04/14 00:15:27;;;;;;;9.20;5.33;;;;;;;;;;4927452;29;20430;-55
2021/04/14 00:17:55;;;;;;;14.00;5.38;;;;;;;;;;4936907;29;20042;-56
2021/04/14 00:20:20;;;;;;;9.37;5.33;;;;;;;;;;4937287;29;20392;-53
2021/04/14 00:22:46;;;;;;;9.23;5.90;;;;;;;;;;4937302;29;20091;-56
2021/04/14 00:25:13;;;;;;;13.13;5.57;;;;;;;;;;4936885;29;20031;-56
2021/04/14 00:27:38;;;;;;;15.13;5.32;;;;;;;;;;4936514;29;20547;-55
2021/04/14 00:30:05;;;;;;;11.67;6.10;;;;;;;;;;4936632;29;20067;-55
2021/04/14 00:32:30;;;;;;;13.37;6.10;;;;;;;;;;4936744;29;20519;-54
2021/04/14 00:34:56;;;;;;;11.00;6.17;;;;;;;;;;4935684;29;20266;-56
2021/04/14 00:37:21;;;;;;;9.40;6.07;;;;;;;;;;4936297;29;20465;-57
2021/04/14 00:39:46;;;;;;;9.50;6.10;;;;;;;;;;4936841;29;20472;-56
2021/04/14 00:42:14;;;;;;;8.70;4.63;;;;;;;;;;4936694;29;20363;-54
2021/04/14 00:44:39;;;;;;;10.98;6.13;;;;;;;;;;4935385;29;20118;-55
2021/04/14 00:47:05;;;;;;;13.13;6.10;;;;;;;;;;4936435;29;20556;-56
2021/04/14 00:49:30;;;;;;;8.03;6.00;;;;;;;;;;4935751;29;20039;-54
2021/04/14 00:51:55;;;;;;;16.37;8.93;;;;;;;;;;4934992;29;20046;-56
2021/04/14 00:54:21;;;;;;;21.93;11.67;;;;;;;;;;4936433;29;20122;-55
2021/04/14 00:56:46;;;;;;;19.07;9.53;;;;;;;;;;4936334;29;20055;-54
2021/04/14 00:59:12;;;;;;;14.87;8.70;;;;;;;;;;4935894;29;20472;-55
2021/04/14 01:01:37;;;;;;;14.57;7.93;;;;;;;;;;4936427;29;20093;-54
2021/04/14 01:04:03;;;;;;;11.90;6.70;;;;;;;;;;4936021;29;20035;-55
2021/04/14 01:06:28;;;;;;;9.60;4.87;;;;;;;;;;4936214;29;20036;-55
2021/04/14 01:08:54;;;;;;;16.10;6.78;;;;;;;;;;4936056;29;20055;-53
2021/04/14 01:11:21;;;;;;;10.40;7.00;;;;;;;;;;4936304;29;20040;-55
2021/04/14 01:13:47;;;;;;;13.32;7.40;;;;;;;;;;4934845;29;20039;-54
2021/04/14 01:16:12;;;;;;;10.27;6.70;;;;;;;;;;4935850;29;20917;-55
2021/04/14 01:18:41;;;;;;;12.80;7.07;;;;;;;;;;4934666;29;20027;-53
2021/04/14 01:21:12;;;;;;;11.90;7.43;;;;;;;;;;4936195;29;20120;-54
2021/04/14 01:23:37;;;;;;;10.68;6.55;;;;;;;;;;4935990;29;20032;-54
2021/04/14 01:26:02;;;;;;;10.13;6.70;;;;;;;;;;4934331;29;20046;-56
2021/04/14 01:28:38;;;;;;;9.87;6.37;;;;;;;;;;4935532;29;20630;-54
2021/04/14 01:31:06;;;;;;;12.90;7.45;;;;;;;;;;4935701;29;20070;-55
2021/04/14 01:33:32;;;;;;;11.55;6.75;;;;;;;;;;4935757;29;20032;-53
2021/04/14 01:35:58;;;;;;;11.98;7.00;;;;;;;;;;4934162;29;20039;-55
2021/04/14 01:38:23;;;;;;;11.30;6.88;;;;;;;;;;4935738;29;20122;-55
2021/04/14 01:40:49;;;;;;;12.37;7.20;;;;;;;;;;4934093;29;20476;-54
2021/04/14 01:43:18;;;;;;;13.85;7.05;;;;;;;;;;4935044;29;20093;-56
2021/04/14 01:45:47;;;;;;;9.48;5.90;;;;;;;;;;4935695;29;20043;-55
2021/04/14 01:48:13;;;;;;;13.25;6.85;;;;;;;;;;4935370;29;20036;-53
2021/04/14 01:50:39;;;;;;;10.48;6.55;;;;;;;;;;4934274;29;20044;-54
2021/04/14 01:53:09;;;;;;;16.70;7.83;;;;;;;;;;4935362;29;20019;-52
2021/04/14 01:55:35;;;;;;;16.40;7.70;;;;;;;;;;4935312;29;20314;-56
2021/04/14 01:58:01;;;;;;;14.05;7.80;;;;;;;;;;4934989;29;20070;-56
2021/04/14 02:00:30;;;;;;;12.60;7.73;;;;;;;;;;4935326;29;20043;-55
2021/04/14 02:02:55;;;;;;;15.27;8.05;;;;;;;;;;4934191;29;20031;-54
2021/04/14 02:05:23;;;;;;;20.10;7.80;;;;;;;;;;4935067;29;20471;-56
2021/04/14 02:07:48;;;;;;;11.43;7.13;;;;;;;;;;4935591;29;20444;-56
2021/04/14 02:10:16;;;;;;;13.27;6.90;;;;;;;;;;4918306;29;20039;-56
2021/04/14 02:12:42;;;;;;;13.48;8.02;;;;;;;;;;4935052;29;20030;-54
2021/04/14 02:15:11;;;;;;;17.48;7.68;;;;;;;;;;4934977;29;20067;-56
2021/04/14 02:17:37;;;;;;;13.75;7.80;;;;;;;;;;4933863;29;20086;-54
2021/04/14 02:20:04;;;;;;;13.47;7.33;;;;;;;;;;4934770;29;20036;-56
2021/04/14 02:22:29;;;;;;;;;;;;;;;;;;4934058;29;20027;-55
2021/04/14 02:24:54;;;;;;;9.10;6.50;;;;;;;;;;4934859;29;20331;-55
2021/04/14 02:27:19;;;;;;;11.47;6.57;;;;;;;;;;4934686;29;20406;-54
2021/04/14 02:29:45;;;;;;;10.77;6.70;;;;;;;;;;4932650;29;20431;-56
2021/04/14 02:32:10;;;;;;;11.10;6.53;;;;;;;;;;4934722;29;20472;-55
2021/04/14 02:34:36;;;;;;;13.53;6.57;;;;;;;;;;4934929;29;20080;-55
2021/04/14 02:37:01;;;;;;;10.67;6.30;;;;;;;;;;4933670;29;20028;-56
2021/04/14 02:39:27;;;;;;;11.83;6.53;;;;;;;;;;4933184;29;20044;-55
2021/04/14 02:41:53;;;;;;;13.13;6.28;;;;;;;;;;4934589;29;20031;-55
2021/04/14 02:44:18;;;;;;;12.23;6.20;;;;;;;;;;4934574;29;20028;-55
2021/04/14 02:46:43;;;;;;;13.20;6.60;;;;;;;;;;4917802;29;20087;-56
2021/04/14 02:49:09;;;;;;;14.30;7.00;;;;;;;;;;4933538;29;20480;-55
2021/04/14 02:51:34;;;;;;;12.50;7.40;;;;;;;;;;4934713;29;20031;-55
2021/04/14 02:53:59;;;;;;;14.40;7.70;;;;;;;;;;4934715;29;20123;-56
2021/04/14 02:56:25;;;;;;;11.50;7.00;;;;;;;;;;4934532;29;20082;-55
2021/04/14 02:58:50;;;;;;;14.03;8.20;;;;;;;;;;4934830;29;20079;-54
2021/04/14 03:01:16;;;;;;;14.87;7.93;;;;;;;;;;4938064;29;20471;-57
2021/04/14 03:03:41;;;;;;;19.63;8.97;;;;;;;;;;4937135;29;20074;-57
2021/04/14 03:06:14;;;;;;;13.20;8.37;;;;;;;;;;4938262;29;20016;-53
2021/04/14 03:08:39;;;;;;;10.65;7.55;;;;;;;;;;4937078;29;20034;-54
2021/04/14 03:11:05;;;;;;;20.20;7.87;;;;;;;;;;4938276;29;20114;-55
2021/04/14 03:13:30;;;;;;;12.93;7.83;;;;;;;;;;4938047;29;20107;-52
2021/04/14 03:15:55;;;;;;;15.30;7.60;;;;;;;;;;4938204;29;20058;-57
2021/04/14 03:18:24;;;;;;;17.73;7.73;;;;;;;;;;4938006;29;20091;-57
2021/04/14 03:20:49;;;;;;;12.80;7.53;;;;;;;;;;4936766;29;20083;-55
2021/04/14 03:23:15;;;;;;;12.40;8.33;;;;;;;;;;4937961;29;20043;-57
2021/04/14 03:25:43;;;;;;;19.45;7.82;;;;;;;;;;4937918;29;20024;-57
2021/04/14 03:28:09;;;;;;;13.05;7.60;;;;;;;;;;4937597;29;20040;-56
2021/04/14 03:30:37;;;;;;;12.80;7.88;;;;;;;;;;4921226;29;20039;-55
2021/04/14 03:33:02;;;;;;;13.88;7.53;;;;;;;;;;4938119;29;20201;-54
2021/04/14 03:35:28;;;;;;;11.80;7.23;;;;;;;;;;4937787;29;20036;-54
2021/04/14 03:37:53;;;;;;;12.23;7.35;;;;;;;;;;4937845;29;20054;-55
2021/04/14 03:40:19;;;;;;;14.20;7.47;;;;;;;;;;4936093;29;20497;-55
2021/04/14 03:42:44;;;;;;;11.20;7.33;;;;;;;;;;4936278;29;20052;-53
2021/04/14 03:45:14;;;;;;;13.63;7.80;;;;;;;;;;4936391;29;20035;-57
2021/04/14 03:47:40;;;;;;;14.68;8.02;;;;;;;;;;4936330;29;20115;-52
2021/04/14 03:50:06;;;;;;;14.65;8.35;;;;;;;;;;4936411;29;20051;-56
2021/04/14 03:52:32;;;;;;;16.85;7.90;;;;;;;;;;4935980;29;20087;-58
2021/04/14 03:54:57;;;;;;;13.47;7.50;;;;;;;;;;4936183;29;20040;-57
2021/04/14 03:57:22;;;;;;;17.27;8.87;;;;;;;;;;4937323;29;20048;-53
2021/04/14 03:59:48;;;;;;;17.57;7.13;;;;;;;;;;4937412;29;20451;-54
2021/04/14 04:02:13;;;;;;;13.13;7.30;;;;;;;;;;4935945;29;20128;-55
2021/04/14 04:04:38;;;;;;;14.53;8.00;;;;;;;;;;4936440;29;20015;-56
2021/04/14 04:07:04;;;;;;;19.97;8.63;;;;;;;;;;4937274;29;20431;-54
2021/04/14 04:09:29;;;;;;;22.60;11.07;;;;;;;;;;4935800;29;20039;-53
2021/04/14 04:11:55;;;;;;;20.43;10.33;;;;;;;;;;4936156;29;20042;-55
2021/04/14 04:14:20;;;;;;;16.40;9.20;;;;;;;;;;4937142;29;20483;-55
2021/04/14 04:16:45;;;;;;;18.97;9.73;;;;;;;;;;4937192;29;20472;-52
2021/04/14 04:19:11;;;;;;;16.33;8.73;;;;;;;;;;4937286;29;20036;-56
2021/04/14 04:21:36;;;;;;;18.30;9.67;;;;;;;;;;4936892;29;20460;-57
2021/04/14 04:24:02;;;;;;;12.93;8.27;;;;;;;;;;4936944;29;20032;-54
2021/04/14 04:26:28;;;;;;;15.93;8.40;;;;;;;;;;4935570;29;20409;-54
2021/04/14 04:28:53;;;;;;;15.85;8.05;;;;;;;;;;4937034;29;20043;-56
2021/04/14 04:31:19;;;;;;;13.67;8.67;;;;;;;;;;4936744;29;20452;-55
2021/04/14 04:33:44;;;;;;;21.30;10.27;;;;;;;;;;4937092;29;20055;-56
2021/04/14 04:36:09;;;;;;;21.67;9.97;;;;;;;;;;4936708;29;20039;-55
2021/04/14 04:38:37;;;;;;;20.00;9.37;;;;;;;;;;4936542;29;20470;-53
2021/04/14 04:41:03;;;;;;;18.30;10.40;;;;;;;;;;4935279;29;20039;-55
2021/04/14 04:43:29;;;;;;;29.38;11.43;;;;;;;;;;4936527;29;20118;-55
2021/04/14 04:45:56;;;;;;;23.30;11.17;;;;;;;;;;4936716;29;20131;-56
2021/04/14 04:48:21;;;;;;;;;;;;;;;;;;4936659;29;20040;-55
2021/04/14 04:50:46;;;;;;;19.63;10.17;;;;;;;;;;4936591;29;19910;-55
2021/04/14 04:53:24;;;;;;;23.23;9.33;;;;;;;;;;4919299;29;20420;-56
2021/04/14 04:55:49;;;;;;;19.42;9.48;;;;;;;;;;4935222;29;20040;-54
2021/04/14 04:58:15;;;;;;;18.40;10.07;;;;;;;;;;4934953;29;20044;-55
2021/04/14 05:00:41;;;;;;;21.93;9.90;;;;;;;;;;4936194;29;20055;-56
2021/04/14 05:03:07;;;;;;;19.30;9.73;;;;;;;;;;4936322;29;20039;-56
2021/04/14 05:05:34;;;;;;;16.52;10.30;;;;;;;;;;4935975;29;20034;-55
2021/04/14 05:07:59;;;;;;;21.42;10.88;;;;;;;;;;4935033;29;20035;-56
2021/04/14 05:10:26;;;;;;;21.77;9.97;;;;;;;;;;4936077;29;20606;-56
2021/04/14 05:12:52;;;;;;;24.55;10.07;;;;;;;;;;4936210;29;20111;-55
2021/04/14 05:15:20;;;;;;;20.23;9.93;;;;;;;;;;4935399;29;20464;-55
2021/04/14 05:17:45;;;;;;;18.20;7.88;;;;;;;;;;4937475;29;20035;-56
2021/04/14 05:20:11;;;;;;;12.27;8.70;;;;;;;;;;4936553;29;20497;-55
2021/04/14 05:22:38;;;;;;;25.70;10.00;;;;;;;;;;4935774;29;20091;-56
2021/04/14 05:25:04;;;;;;;18.92;9.75;;;;;;;;;;4934741;29;20046;-54
2021/04/14 05:27:31;;;;;;;20.08;9.23;;;;;;;;;;4935881;29;20455;-58
2021/04/14 05:29:56;;;;;;;17.90;8.60;;;;;;;;;;4937142;29;20047;-56
2021/04/14 05:32:23;;;;;;;23.60;8.87;;;;;;;;;;4918779;29;20122;-55
2021/04/14 05:34:51;;;;;;;13.98;8.60;;;;;;;;;;4935958;29;20027;-52
2021/04/14 05:37:16;;;;;;;13.00;7.82;;;;;;;;;;4936075;29;20412;-55
2021/04/14 05:39:44;;;;;;;22.07;7.90;;;;;;;;;;4935618;29;20028;-55
2021/04/14 05:42:12;;;;;;;14.48;8.05;;;;;;;;;;4918275;29;20392;-54
2021/04/14 05:44:40;;;;;;;17.70;9.63;;;;;;;;;;4935404;28;20437;-53
2021/04/14 05:47:05;;;;;;;16.13;8.60;;;;;;;;;;4933798;29;20083;-54
2021/04/14 05:49:31;;;;;;;18.67;8.60;;;;;;;;;;4934436;29;20090;-56
2021/04/14 05:51:57;;;;;;;20.40;9.00;;;;;;;;;;4935211;28;20380;-53
2021/04/14 05:54:22;;;;;;;18.08;8.45;;;;;;;;;;4935607;29;20464;-56
2021/04/14 05:56:47;;;;;;;15.03;9.10;;;;;;;;;;4935052;29;20043;-55
2021/04/14 05:59:14;;;;;;;17.50;8.10;;;;;;;;;;4935336;29;20071;-55
2021/04/14 06:01:43;;;;;;;17.60;7.68;;;;;;;;;;4934005;29;20055;-54
2021/04/14 06:04:09;;;;;;;15.00;8.27;;;;;;;;;;4935224;29;20115;-58
2021/04/14 06:06:35;;;;;;;16.77;8.43;;;;;;;;;;4934112;29;20127;-55
2021/04/14 06:09:00;;;;;;;16.77;8.40;;;;;;;;;;4918038;29;20042;-53
2021/04/14 06:11:27;;;;;;;19.30;8.77;;;;;;;;;;4934710;29;20020;-55
2021/04/14 06:13:55;;;;;;;16.50;8.33;;;;;;;;;;4934803;29;20040;-56
2021/04/14 06:16:20;;;;;;;21.15;8.57;;;;;;;;;;4934647;29;20262;-57
2021/04/14 06:18:46;;;;;;;15.37;8.87;;;;;;;;;;4934714;29;20383;-56
2021/04/14 06:21:14;;;;;;;17.40;8.83;;;;;;;;;;4934959;29;20071;-54
2021/04/14 06:23:39;;;;;;;15.25;8.68;;;;;;;;;;4933475;29;20368;-55
2021/04/14 06:28:34;;;;;;;16.67;8.50;;;;;;;;;;4921180;29;20032;-56
2021/04/14 06:30:59;;;;;;;16.15;7.40;;;;;;;;;;4915323;29;20045;-55
2021/04/14 06:33:26;;;;;;;17.57;7.97;;;;;;;;;;4915705;29;20032;-57
2021/04/14 06:35:52;;;;;;;14.52;7.90;;;;;;;;;;4913873;29;20108;-56
2021/04/14 06:38:21;;;;;;;16.08;7.95;;;;;;;;;;4915826;29;20040;-56
2021/04/14 06:43:42;;;;;;;20.10;8.98;;;;;;;;;;4934086;29;20065;-56
2021/04/14 06:46:13;;;;;;;14.48;8.38;;;;;;;;;;4935225;29;20031;-57
2021/04/14 06:48:51;;;;;;;13.88;8.27;;;;;;;;;;4932665;29;20428;-55
2021/04/14 06:51:21;;;;;;;16.10;9.10;;;;;;;;;;4934716;29;20499;-56
2021/04/14 06:54:09;;;;;;;15.07;9.63;;;;;;;;;;4934596;29;20039;-56
2021/04/14 06:56:37;;;;;;;19.15;9.48;;;;;;;;;;4924273;29;20044;-54
2021/04/14 06:59:04;;;;;;;17.38;9.30;;;;;;;;;;4932327;29;20056;-54
2021/04/14 07:01:34;;;;;;;15.80;7.13;;;;;;;;;;4927374;29;20048;-56
2021/04/14 07:04:02;;;;;;;12.07;7.47;;;;;;;;;;4933995;29;20032;-55
2021/04/14 07:06:28;;;;;;;17.02;8.35;;;;;;;;;;4933066;29;20194;-56
2021/04/14 07:09:12;;;;;;;13.82;8.90;;;;;;;;;;4933976;29;20039;-56
2021/04/14 07:11:38;;;;;;;16.60;10.40;;;;;;;;;;4933784;29;20047;-56
2021/04/14 07:14:04;;;;;;;19.55;9.95;;;;;;;;;;4934398;29;20075;-56
2021/04/14 07:16:37;;;;;;;17.17;9.53;;;;;;;;;;4916512;29;20048;-55
2021/04/14 07:19:08;;;;;;;17.55;9.50;;;;;;;;;;4933534;29;20093;-55
2021/04/14 07:21:45;;;;;;;15.57;8.98;;;;;;;;;;4933632;29;20452;-57
2021/04/14 07:24:20;;;;;;;19.02;10.45;;;;;;;;;;4934553;29;20456;-56
2021/04/14 07:26:48;;;;;;;20.60;10.20;;;;;;;;;;4932610;29;20138;-56
2021/04/14 07:29:19;;;;;;;15.10;7.32;;;;;;;;;;4933963;29;20059;-57
2021/04/14 07:31:58;;;;;;;13.55;6.90;;;;;;;;;;4933103;29;20032;-55
2021/04/14 07:34:42;;;;;;;14.98;7.93;;;;;;;;;;4933053;29;20036;-55
2021/04/14 07:37:13;;;;;;;14.60;7.30;;;;;;;;;;4934310;29;20091;-52
2021/04/14 07:39:47;;;;;;;13.55;7.35;;;;;;;;;;4933537;29;20095;-55
2021/04/14 07:42:22;;;;;;;15.07;7.30;;;;;;;;;;4933947;29;20040;-55
2021/04/14 07:45:07;;;;;;;15.88;7.22;;;;;;;;;;4933413;29;20031;-55
2021/04/14 07:47:33;;;;;;;18.45;9.50;;;;;;;;;;4936579;29;20102;-52
2021/04/14 07:49:59;;;;;;;24.92;9.40;;;;;;;;;;4936998;29;20038;-54
2021/04/14 07:52:26;;;;;;;20.10;9.20;;;;;;;;;;4937294;29;20039;-55
2021/04/14 07:54:55;;;;;;;16.83;8.40;;;;;;;;;;4937263;29;20036;-54
2021/04/14 07:57:25;;;;;;;14.30;7.82;;;;;;;;;;4937458;29;20082;-55
2021/04/14 07:59:51;;;;;;;23.30;9.93;;;;;;;;;;4935159;29;20048;-56
2021/04/14 08:02:26;;;;;;;18.93;8.60;;;;;;;;;;4937606;29;20055;-59
2021/04/14 08:05:02;;;;;;;16.15;9.57;;;;;;;;;;4937184;29;20107;-56
2021/04/14 08:07:36;;;;;;;15.50;8.55;;;;;;;;;;4937102;29;20063;-55
2021/04/14 08:10:08;;;;;;;15.63;8.10;;;;;;;;;;4937068;29;20106;-55
2021/04/14 08:12:35;;;;;;;16.55;7.93;;;;;;;;;;4937052;29;20035;-54
2021/04/14 08:15:08;;;;;;;18.95;10.13;;;;;;;;;;4935097;29;20027;-55
2021/04/14 08:17:33;;;;;;;16.42;7.57;;;;;;;;;;4916458;29;20039;-54
2021/04/14 08:19:59;;;;;;;11.83;6.07;;;;;;;;;;4916595;29;20393;-55
2021/04/14 08:22:25;;;;;;;12.27;5.35;;;;;;;;;;4918060;29;20036;-55
2021/04/14 08:24:53;;;;;;;13.45;6.50;;;;;;;;;;4917555;29;20123;-55
2021/04/14 08:27:19;;;;;;;15.48;6.03;;;;;;;;;;4930493;29;20058;-55
2021/04/14 08:29:49;;;;;;;16.97;6.83;;;;;;;;;;4936507;29;20056;-56
2021/04/14 08:32:15;;;;;;;13.07;7.28;;;;;;;;;;4935155;29;20262;-55
2021/04/14 08:34:52;;;;;;;16.85;8.32;;;;;;;;;;4936907;29;20059;-56
2021/04/14 08:37:21;;;;;;;15.10;6.32;;;;;;;;;;4936755;29;20027;-55
2021/04/14 08:39:50;;;;;;;17.38;7.97;;;;;;;;;;4936298;29;20464;-55
2021/04/14 08:42:22;;;;;;;17.52;9.05;;;;;;;;;;4936810;29;20044;-56
2021/04/14 08:45:11;;;;;;;20.40;9.98;;;;;;;;;;4935559;29;20070;-57
2021/04/14 08:47:37;;;;;;;18.15;9.27;;;;;;;;;;4926608;29;20039;-56
2021/04/14 08:50:11;;;;;;;20.00;9.50;;;;;;;;;;4936025;29;20039;-55
2021/04/14 08:52:42;;;;;;;19.35;9.27;;;;;;;;;;4934898;29;20106;-54
2021/04/14 08:55:09;;;;;;;18.10;9.05;;;;;;;;;;4938646;28;20133;-57
2021/04/14 08:57:34;;;;;;;18.58;8.95;;;;;;;;;;4934037;29;20052;-56
2021/04/14 09:00:00;;;;;;;20.33;8.87;;;;;;;;;;4933472;29;20052;-55
2021/04/14 09:02:25;;;;;;;17.73;8.10;;;;;;;;;;4935500;29;20403;-55
2021/04/14 09:04:51;;;;;;;14.90;8.00;;;;;;;;;;4935757;29;20027;-56
2021/04/14 09:07:23;;;;;;;19.05;6.97;;;;;;;;;;4935813;28;20040;-56
2021/04/14 09:09:52;;;;;;;14.25;6.05;;;;;;;;;;4932776;29;20069;-56
2021/04/14 09:12:17;;;;;;;12.48;5.70;;;;;;;;;;4930812;29;20059;-56
2021/04/14 09:14:43;;;;;;;12.10;6.20;;;;;;;;;;4954268;28;20118;-55
2021/04/14 09:17:11;;;;;;;12.82;5.72;;;;;;;;;;4930267;29;20069;-56
2021/04/14 09:19:41;;;;;;;13.65;5.80;;;;;;;;;;4930911;29;20061;-56
2021/04/14 09:22:13;;;;;;;12.25;5.55;;;;;;;;;;4932843;29;20142;-54
2021/04/14 09:24:44;;;;;;;15.82;6.68;;;;;;;;;;4933983;29;20086;-56
2021/04/14 09:27:19;;;;;;;14.15;5.75;;;;;;;;;;4935339;29;20384;-56
2021/04/14 09:29:44;;;;;;;10.48;4.90;;;;;;;;;;4934936;29;20035;-56
2021/04/14 09:32:11;;;;;;;10.90;5.30;;;;;;;;;;4934614;29;20028;-54
2021/04/14 09:34:36;;;;;;;;;;;;;;;;;;4934197;29;20484;-56
2021/04/14 09:37:08;;;;;;;12.40;5.27;;;;;;;;;;4935038;29;19918;-56
2021/04/14 09:39:40;;;;;;;12.45;5.45;;;;;;;;;;4934784;29;20046;-56
2021/04/14 09:42:15;;;;;;;10.95;5.55;;;;;;;;;;4935620;29;20042;-56
2021/04/14 09:44:44;;;;;;;10.30;5.25;;;;;;;;;;4935839;29;20052;-54
2021/04/14 09:47:10;;;;;;;8.85;4.85;;;;;;;;;;4934658;29;20115;-56
2021/04/14 09:49:39;;;;;;;8.33;4.93;;;;;;;;;;4935243;29;20067;-58
2021/04/14 09:52:18;;;;;;;15.73;5.70;;;;;;;;;;4935325;29;20046;-55
2021/04/14 09:54:44;;;;;;;10.60;5.53;;;;;;;;;;4935194;29;20369;-57
2021/04/14 09:57:12;;;;;;;15.45;5.50;;;;;;;;;;4934750;29;20291;-57
2021/04/14 09:59:39;;;;;;;8.73;5.37;;;;;;;;;;4933938;29;20044;-57
2021/04/14 10:02:31;;;;;;;9.97;5.27;;;;;;;;;;4934363;28;20266;-56
2021/04/14 10:04:59;;;;;;;10.67;5.80;;;;;;;;;;4933315;29;20663;-57
2021/04/14 10:07:44;;;;;;;10.60;6.63;;;;;;;;;;4934664;29;20035;-57
2021/04/14 10:10:13;;;;;;;12.17;7.23;;;;;;;;;;4932943;29;20114;-58
2021/04/14 10:12:38;;;;;;;11.50;6.60;;;;;;;;;;4935047;29;20074;-57
2021/04/14 10:15:05;;;;;;;12.63;7.95;;;;;;;;;;4934736;28;20035;-57
2021/04/14 10:17:31;;;;;;;13.73;9.27;;;;;;;;;;4934774;29;20063;-56
2021/04/14 10:20:12;;;;;;;16.08;9.70;;;;;;;;;;4965590;28;20067;-56
2021/04/14 10:22:40;;;;;;;16.93;8.00;;;;;;;;;;4934697;29;20115;-57
2021/04/14 10:25:16;;;;;;;15.27;7.50;;;;;;;;;;4965614;28;20027;-55
2021/04/14 10:27:42;;;;;;;14.57;8.52;;;;;;;;;;4933701;29;20035;-57
2021/04/14 10:30:08;;;;;;;14.98;7.75;;;;;;;;;;4933921;29;20622;-57
2021/04/14 10:32:36;;;;;;;10.00;6.63;;;;;;;;;;4934090;28;20062;-55
2021/04/14 10:35:01;;;;;;;;;;;;;;;;;;4934616;29;20520;-58
2021/04/14 10:37:27;;;;;;;10.83;6.63;;;;;;;;;;4934606;29;19946;-55
2021/04/14 10:39:53;;;;;;;9.87;6.70;;;;;;;;;;4934451;29;20039;-57
2021/04/14 10:42:18;;;;;;;;;;;;;;;;;;4935302;29;20110;-56
2021/04/14 10:44:44;;;;;;;13.40;7.00;;;;;;;;;;4934247;29;20089;-56
2021/04/14 10:47:21;;;;;;;11.75;7.75;;;;;;;;;;4934050;28;20035;-58
2021/04/14 10:49:47;;;;;;;20.17;11.00;;;;;;;;;;4933038;29;20024;-56
2021/04/14 10:52:19;;;;;;;12.60;8.38;;;;;;;;;;4933185;29;20536;-58
2021/04/14 10:54:47;;;;;;;15.47;8.83;;;;;;;;;;4933583;29;20043;-57
2021/04/14 10:57:14;;;;;;;16.13;8.67;;;;;;;;;;4934352;29;20331;-56
2021/04/14 10:59:40;;;;;;;12.87;8.13;;;;;;;;;;4933920;29;20043;-57
2021/04/14 11:02:10;;;;;;;18.15;9.40;;;;;;;;;;4933822;28;20035;-56
2021/04/14 11:04:36;;;;;;;14.47;9.20;;;;;;;;;;4934398;29;20107;-56
2021/04/14 11:07:04;;;;;;;15.50;8.00;;;;;;;;;;4934250;29;20500;-55
2021/04/14 11:09:30;;;;;;;12.70;7.90;;;;;;;;;;4933929;29;20036;-56
2021/04/14 11:11:58;;;;;;;11.03;6.93;;;;;;;;;;4934789;29;20051;-57
2021/04/14 11:14:24;;;;;;;12.07;5.70;;;;;;;;;;4936117;29;20071;-58
2021/04/14 11:16:49;;;;;;;13.98;5.50;;;;;;;;;;4939064;29;20482;-56
2021/04/14 11:19:20;;;;;;;12.48;6.65;;;;;;;;;;4940428;29;20492;-57
2021/04/14 11:21:45;;;;;;;13.33;6.30;;;;;;;;;;4939135;29;20031;-57
2021/04/14 11:24:13;;;;;;;13.82;5.85;;;;;;;;;;4938929;29;20038;-60
2021/04/14 11:26:48;;;;;;;11.40;5.90;;;;;;;;;;4938687;29;20123;-55
2021/04/14 11:29:21;;;;;;;11.90;5.83;;;;;;;;;;4939767;29;20067;-54
2021/04/14 11:31:51;;;;;;;9.13;5.40;;;;;;;;;;4938035;29;20274;-60
2021/04/14 11:34:27;;;;;;;13.47;6.33;;;;;;;;;;4941174;29;20386;-59
2021/04/14 11:36:54;;;;;;;10.75;6.47;;;;;;;;;;4943563;29;20320;-61
2021/04/14 11:39:20;;;;;;;11.43;6.43;;;;;;;;;;4938421;29;20051;-55
2021/04/14 11:42:02;;;;;;;10.23;6.05;;;;;;;;;;4936672;29;20266;-55
2021/04/14 11:44:38;;;;;;;12.10;6.23;;;;;;;;;;4937986;29;20039;-53
2021/04/14 11:47:05;;;;;;;9.27;5.45;;;;;;;;;;4938207;29;20265;-55
2021/04/14 11:49:33;;;;;;;10.60;5.57;;;;;;;;;;4938506;29;20043;-54
2021/04/14 11:51:59;;;;;;;8.60;5.43;;;;;;;;;;4936597;29;20290;-56
2021/04/14 11:54:36;;;;;;;11.30;5.57;;;;;;;;;;4937591;29;20325;-56
2021/04/14 11:57:06;;;;;;;9.32;5.35;;;;;;;;;;4937376;29;20344;-56
2021/04/14 11:59:33;;;;;;;9.17;4.97;;;;;;;;;;4936676;29;20043;-56
2021/04/14 12:02:01;;;;;;;8.73;4.33;;;;;;;;;;4937132;29;20294;-58
2021/04/14 12:04:27;;;;;;;7.00;4.30;;;;;;;;;;4937411;29;20273;-56
2021/04/14 12:06:52;;;;;;;9.13;4.20;;;;;;;;;;4935279;29;20269;-56
2021/04/14 12:09:18;;;;;;;9.03;3.97;;;;;;;;;;4935997;29;20350;-56
2021/04/14 12:11:43;;;;;;;6.77;3.83;;;;;;;;;;4937188;29;20780;-56
2021/04/14 12:14:08;;;;;;;7.60;3.50;;;;;;;;;;4935005;29;20337;-56
2021/04/14 12:16:36;;;;;;;9.07;4.13;;;;;;;;;;4935516;29;20408;-55
2021/04/14 12:19:01;;;;;;;3.47;2.50;;;;;;;;;;4936469;29;20106;-57
2021/04/14 12:21:27;;;;;;;7.40;2.87;;;;;;;;;;4936880;29;20020;-56
2021/04/14 12:23:53;;;;;;;;;;;;;;;;;;4935871;29;20127;-55
2021/04/14 12:26:19;;;;;;;6.73;2.63;;;;;;;;;;4936844;29;20085;-55
2021/04/14 12:28:44;;;;;;;5.23;3.10;;;;;;;;;;4936592;29;20079;-56
2021/04/14 12:31:10;;;;;;;6.38;3.42;;;;;;;;;;4936556;29;20040;-56
2021/04/14 12:33:35;;;;;;;6.15;2.50;;;;;;;;;;4935462;29;20035;-56
2021/04/14 12:36:00;;;;;;;8.47;3.40;;;;;;;;;;4936472;29;20027;-53
2021/04/14 12:38:26;;;;;;;7.40;3.87;;;;;;;;;;4936493;29;20062;-56
2021/04/14 12:40:51;;;;;;;5.77;3.10;;;;;;;;;;4936505;29;20046;-57
2021/04/14 12:43:17;;;;;;;8.63;4.05;;;;;;;;;;4936151;29;20123;-56
2021/04/14 12:45:49;;;;;;;8.18;4.15;;;;;;;;;;4935140;29;20097;-56
2021/04/14 12:48:17;;;;;;;9.37;4.10;;;;;;;;;;4936240;29;20043;-57
2021/04/14 12:50:52;;;;;;;6.93;3.20;;;;;;;;;;4936384;29;20547;-58
2021/04/14 12:53:18;;;;;;;6.57;3.80;;;;;;;;;;4936051;29;20484;-57
2021/04/14 12:55:43;;;;;;;;;;;;;;;;;;4936630;29;20035;-58
2021/04/14 12:58:09;;;;;;;7.40;3.47;;;;;;;;;;4934404;29;19973;-58
2021/04/14 13:00:34;;;;;;;8.47;3.30;;;;;;;;;;4936162;29;20070;-58
2021/04/14 13:03:10;;;;;;;4.85;2.72;;;;;;;;;;4936141;29;20063;-58
2021/04/14 13:05:39;;;;;;;4.95;2.78;;;;;;;;;;4935933;29;20461;-58
2021/04/14 13:08:15;;;;;;;6.22;2.92;;;;;;;;;;4936332;29;20509;-58
2021/04/14 13:10:40;;;;;;;;;;;;;;;;;;4935301;29;20050;-58
2021/04/14 13:13:06;;;;;;;4.83;3.13;;;;;;;;;;4935683;29;19910;-58
2021/04/14 13:15:37;;;;;;;6.20;2.58;;;;;;;;;;4935723;29;20472;-57
2021/04/14 13:18:02;;;;;;;4.85;2.53;;;;;;;;;;4934893;29;20110;-57
2021/04/14 13:20:27;;;;;;;7.30;2.50;;;;;;;;;;4918556;29;20122;-57
2021/04/14 13:22:58;;;;;;;4.78;2.17;;;;;;;;;;4934719;29;20051;-58
2021/04/14 13:25:42;;;;;;;4.57;1.98;;;;;;;;;;4935479;29;20046;-57
2021/04/14 13:28:12;;;;;;;3.93;1.50;;;;;;;;;;4932977;29;20032;-57
2021/04/14 13:30:42;;;;;;;3.40;1.73;;;;;;;;;;4933906;29;20423;-55
2021/04/14 13:33:09;;;;;;;5.37;2.20;;;;;;;;;;4907602;29;20064;-56
2021/04/14 13:35:39;;;;;;;4.13;2.50;;;;;;;;;;4915279;29;20040;-61
2021/04/14 13:38:10;;;;;;;4.63;2.10;;;;;;;;;;4916626;29;20032;-55
2021/04/14 13:41:05;;;;;;;4.70;1.67;;;;;;;;;;4925227;29;20044;-56
2021/04/14 13:43:34;;;;;;;5.93;1.80;;;;;;;;;;4926084;29;20492;-56
2021/04/14 13:46:11;;;;;;;6.23;1.80;;;;;;;;;;4935218;29;20056;-55
2021/04/14 13:48:48;;;;;;;5.13;1.47;;;;;;;;;;4929201;29;20393;-56
2021/04/14 13:51:15;;;;;;;3.42;1.50;;;;;;;;;;4915895;29;20198;-56
2021/04/14 13:53:46;;;;;;;2.70;1.10;;;;;;;;;;4916230;29;20035;-57
2021/04/14 13:56:28;;;;;;;4.63;1.20;;;;;;;;;;4916167;29;20477;-57
2021/04/14 13:58:53;;;;;;;2.17;0.90;;;;;;;;;;4914742;29;20052;-56
2021/04/14 14:01:18;;;;;;;;;;;;;;;;;;4915219;29;20046;-56
2021/04/14 14:03:46;;;;;;;;;;;;;;;;;;4914989;29;19923;-56
2021/04/14 14:06:21;;;;;;;8.30;1.20;;;;;;;;;;4916785;29;19993;-58
2021/04/14 14:08:49;;;;;;;3.30;1.08;;;;;;;;;;4916385;29;20063;-55
2021/04/14 14:11:17;;;;;;;3.17;1.30;;;;;;;;;;4915909;29;20040;-57
2021/04/14 14:13:44;;;;;;;5.78;1.20;;;;;;;;;;4944434;29;20039;-55
2021/04/14 14:16:10;;;;;;;5.85;1.30;;;;;;;;;;4934830;29;20059;-57
2021/04/14 14:18:36;;;;;;;5.20;1.20;;;;;;;;;;4915895;29;20509;-56
2021/04/14 14:21:04;;;;;;;3.38;1.05;;;;;;;;;;4917792;29;20046;-57
2021/04/14 14:23:30;;;;;;;4.28;0.80;;;;;;;;;;4914682;29;20477;-56
2021/04/14 14:25:57;;;;;;;9.25;2.55;;;;;;;;;;4916113;29;20111;-55
2021/04/14 14:28:23;;;;;;;6.17;1.80;;;;;;;;;;4915355;29;20374;-55
2021/04/14 14:30:48;;;;;;;;;;;;;;;;;;4916360;29;20035;-55
2021/04/14 14:33:13;;;;;;;3.43;1.90;;;;;;;;;;4914799;29;20002;-55
2021/04/14 14:35:39;;;;;;;;;;;;;;;;;;4914527;29;20582;-57
2021/04/14 14:38:10;;;;;;;4.13;1.07;;;;;;;;;;4928635;29;19911;-54
2021/04/14 14:40:39;;;;;;;3.97;1.20;;;;;;;;;;4933458;29;20040;-55
2021/04/14 14:43:08;;;;;;;5.93;1.23;;;;;;;;;;4934743;29;20019;-54
2021/04/14 14:45:39;;;;;;;4.30;1.10;;;;;;;;;;4934361;29;20036;-54